Time;durP1;ratioP1;P1;durP2;ratioP2;P2;SDS_P1;SDS_P2;PMS_P1;PMS_P2;Temp;Humidity;BMP_temperature;BMP_pressure;BME280_temperature;BME280_humidity;BME280_pressure;Samples;Min_cycle;Max_cycle;Signal;HPM_P1;HPM_P2
2022/01/17 00:00:06;;;;;;;0.60;0.60;;;;;;;2.09;77.18;98223.91;29373;214;63004;-62
2022/01/17 00:00:37;;;;;;;0.60;0.60;;;;;;;2.00;77.45;98226.81;29373;240;63013;-63
2022/01/17 00:01:10;;;;;;;0.70;0.70;;;;;;;1.92;77.72;98234.22;29373;241;63010;-64
2022/01/17 00:01:42;;;;;;;0.80;0.80;;;;;;;1.90;77.83;98229.06;29371;388;64008;-62
2022/01/17 00:02:13;;;;;;;0.60;0.60;;;;;;;1.86;78.13;98230.50;29373;358;63005;-63
2022/01/17 00:02:47;;;;;;;0.60;0.60;;;;;;;1.81;78.82;98224.94;29373;364;63009;-62
2022/01/17 00:03:22;;;;;;;0.60;0.60;;;;;;;1.81;78.55;98224.94;29373;264;63005;-63
2022/01/17 00:03:53;;;;;;;0.60;0.60;;;;;;;1.80;78.54;98234.00;29373;197;63009;-63
2022/01/17 00:04:25;;;;;;;0.60;0.60;;;;;;;1.77;78.76;98233.56;29373;232;63005;-61
2022/01/17 00:04:56;;;;;;;0.60;0.60;;;;;;;1.77;79.01;98220.19;29373;209;63009;-60
2022/01/17 00:05:30;;;;;;;0.85;0.85;;;;;;;1.75;78.73;98232.94;29373;318;63010;-62
2022/01/17 00:06:11;;;;;;;2.17;1.30;;;;;;;1.82;78.93;98221.22;29373;244;63009;-67
2022/01/17 00:06:44;;;;;;;0.60;0.60;;;;;;;1.92;78.33;98234.22;29394;332;64004;-73
2022/01/17 00:07:16;;;;;;;0.60;0.60;;;;;;;1.98;78.37;98228.06;29373;202;63009;-63
2022/01/17 00:07:47;;;;;;;0.60;0.60;;;;;;;1.95;78.18;98231.97;29372;222;64004;-62
2022/01/17 00:08:20;;;;;;;0.57;0.57;;;;;;;1.90;78.33;98226.41;29373;322;63016;-62
2022/01/17 00:08:51;;;;;;;0.60;0.60;;;;;;;1.85;78.46;98231.53;29373;229;63004;-61
2022/01/17 00:09:22;;;;;;;0.60;0.60;;;;;;;1.79;79.29;98239.56;29373;202;63004;-62
2022/01/17 00:09:54;;;;;;;0.60;0.60;;;;;;;1.74;79.03;98237.47;29373;232;63005;-61
2022/01/17 00:10:25;;;;;;;0.60;0.60;;;;;;;1.70;79.34;98238.94;29373;270;63009;-61
2022/01/17 00:10:56;;;;;;;0.60;0.60;;;;;;;1.68;79.42;98238.31;29373;204;63005;-62
2022/01/17 00:11:28;;;;;;;0.60;0.60;;;;;;;1.67;79.67;98237.50;29373;204;63009;-60
2022/01/17 00:11:59;;;;;;;0.60;0.60;;;;;;;1.67;79.80;98242.03;29371;361;64005;-61
2022/01/17 00:12:33;;;;;;;0.50;0.50;;;;;;;1.65;80.26;98239.56;29373;349;63009;-62
2022/01/17 00:13:04;;;;;;;0.75;0.75;;;;;;;1.65;80.10;98241.41;29373;290;63005;-62
2022/01/17 00:13:36;;;;;;;0.60;0.60;;;;;;;1.66;80.22;98229.66;29371;381;64009;-61
2022/01/17 00:14:12;;;;;;;1.08;1.08;;;;;;;1.72;80.07;98234.22;29373;230;63000;-72
2022/01/17 00:14:43;;;;;;;0.60;0.60;;;;;;;1.81;79.16;98240.16;29395;232;63009;-62
2022/01/17 00:15:21;;;;;;;0.60;0.60;;;;;;;1.80;79.30;98239.34;29395;225;63004;-61
2022/01/17 00:16:04;;;;;;;0.60;0.60;;;;;;;1.78;79.41;98238.72;29373;319;63004;-60
2022/01/17 00:16:41;;;;;;;0.80;0.80;;;;;;;1.80;79.51;98242.03;29373;331;63004;-64
2022/01/17 00:19:35;;;;;;;0.60;0.60;;;;;;;1.95;78.69;98234.63;29395;285;63016;-61
2022/01/17 00:20:10;;;;;;;0.60;0.60;;;;;;;1.86;79.09;98235.03;29373;249;63009;-61
2022/01/17 00:20:46;;;;;;;0.60;0.60;;;;;;;1.82;79.15;98233.78;29373;222;63009;-60
2022/01/17 00:21:18;;;;;;;0.60;0.60;;;;;;;1.77;79.47;98231.72;29373;350;63005;-62
2022/01/17 00:21:50;;;;;;;0.60;0.60;;;;;;;1.75;79.20;98232.94;29373;256;63009;-62
2022/01/17 00:22:22;;;;;;;0.60;0.60;;;;;;;1.72;79.39;98236.88;29371;238;64004;-60
2022/01/17 00:22:54;;;;;;;0.68;0.68;;;;;;;1.71;79.67;98243.25;29373;210;63019;-62
2022/01/17 00:23:25;;;;;;;0.90;0.90;;;;;;;1.71;79.88;98245.94;29395;263;63004;-66
2022/01/17 00:23:56;;;;;;;0.60;0.60;;;;;;;1.79;79.51;98242.22;29371;349;64008;-64
2022/01/17 00:24:27;;;;;;;0.60;0.60;;;;;;;1.81;79.65;98237.50;29373;267;63004;-62
2022/01/17 00:24:59;;;;;;;0.60;0.60;;;;;;;1.87;79.37;98242.84;29373;198;63017;-65
2022/01/17 00:25:30;;;;;;;0.60;0.60;;;;;;;1.90;79.34;98237.09;29395;272;63005;-60
2022/01/17 00:26:01;;;;;;;0.60;0.60;;;;;;;1.89;79.20;98239.97;29374;321;63009;-64
2022/01/17 00:26:32;;;;;;;0.60;0.60;;;;;;;1.88;79.25;98239.16;29373;304;63005;-62
2022/01/17 00:27:04;;;;;;;0.60;0.60;;;;;;;1.85;79.06;98234.22;29373;216;63009;-61
2022/01/17 00:27:36;;;;;;;0.60;0.60;;;;;;;1.83;79.12;98235.44;29395;220;63005;-61
2022/01/17 00:28:07;;;;;;;0.60;0.60;;;;;;;1.80;79.15;98233.16;29373;224;63009;-62
2022/01/17 00:28:38;;;;;;;0.60;0.60;;;;;;;1.78;79.35;98240.56;29373;226;63004;-60
2022/01/17 00:29:10;;;;;;;0.70;0.70;;;;;;;1.90;79.16;98242.44;29371;267;64009;-57
2022/01/17 00:29:41;;;;;;;0.60;0.60;;;;;;;1.94;79.11;98237.50;29371;232;64004;-62
2022/01/17 00:30:13;;;;;;;2.25;1.45;;;;;;;1.98;78.50;98242.25;29395;344;63009;-63
2022/01/17 00:30:44;;;;;;;0.60;0.60;;;;;;;1.99;78.42;98241.22;29373;202;63004;-66
2022/01/17 00:31:15;;;;;;;7.28;6.72;;;;;;;2.07;78.34;98240.22;29373;208;63008;-66
2022/01/17 00:31:46;;;;;;;0.60;0.60;;;;;;;2.13;78.06;98246.56;29373;305;63005;-62
2022/01/17 00:32:18;;;;;;;0.80;0.80;;;;;;;2.13;78.05;98246.56;29373;219;63009;-61
2022/01/17 00:32:50;;;;;;;0.60;0.60;;;;;;;2.11;78.06;98248.63;29373;270;63011;-60
2022/01/17 00:33:21;;;;;;;7.10;6.72;;;;;;;2.02;78.50;98250.72;29373;217;63009;-61
2022/01/17 00:33:52;;;;;;;0.60;0.60;;;;;;;1.98;78.47;98261.00;29373;198;63005;-61
2022/01/17 00:34:24;;;;;;;0.60;0.60;;;;;;;1.96;78.69;98263.06;29373;313;63015;-62
2022/01/17 00:34:55;;;;;;;0.60;0.60;;;;;;;1.91;78.85;98262.84;29371;309;64005;-64
2022/01/17 00:35:26;;;;;;;0.60;0.60;;;;;;;1.90;78.88;98269.22;29373;259;63009;-61
2022/01/17 00:35:57;;;;;;;0.60;0.60;;;;;;;1.85;78.74;98274.34;29373;213;63004;-61
2022/01/17 00:36:28;;;;;;;0.60;0.60;;;;;;;1.81;79.16;98270.44;29373;232;63009;-61
2022/01/17 00:37:00;;;;;;;0.60;0.60;;;;;;;1.75;79.66;98273.91;29372;223;63004;-61
2022/01/17 00:37:31;;;;;;;0.57;0.57;;;;;;;1.69;79.98;98274.75;29373;344;63009;-61
2022/01/17 00:38:03;;;;;;;0.60;0.60;;;;;;;1.66;79.90;98283.19;29373;254;63004;-56
2022/01/17 00:38:35;;;;;;;0.60;0.60;;;;;;;1.64;80.11;98279.88;29373;287;63008;-62
2022/01/17 00:39:06;;;;;;;0.55;0.55;;;;;;;1.65;79.98;98281.53;29372;224;64005;-62
2022/01/17 00:39:38;;;;;;;0.60;0.60;;;;;;;1.66;79.99;98288.53;29371;202;64009;-61
2022/01/17 00:40:11;;;;;;;0.60;0.60;;;;;;;1.64;80.01;98279.88;29373;349;63005;-61
2022/01/17 00:40:43;;;;;;;0.60;0.60;;;;;;;1.60;80.38;98284.81;29373;255;63009;-61
2022/01/17 00:41:14;;;;;;;0.60;0.60;;;;;;;1.58;80.29;98286.03;29373;250;63005;-61
2022/01/17 00:41:46;;;;;;;0.60;0.60;;;;;;;1.55;80.59;98281.09;29373;291;63009;-61
2022/01/17 00:42:17;;;;;;;0.60;0.60;;;;;;;1.53;80.74;98293.84;29373;202;63005;-61
2022/01/17 00:42:48;;;;;;;0.60;0.60;;;;;;;1.49;81.01;98293.41;29373;238;63009;-61
2022/01/17 00:43:19;;;;;;;0.60;0.60;;;;;;;1.49;80.87;98287.22;29373;328;63004;-60
2022/01/17 00:43:50;;;;;;;0.60;0.60;;;;;;;1.49;80.92;98297.94;29373;287;63009;-62
2022/01/17 00:44:23;;;;;;;0.60;0.60;;;;;;;1.48;81.08;98286.41;29373;235;63004;-62
2022/01/17 00:44:56;;;;;;;0.60;0.60;;;;;;;1.49;81.42;98289.91;29371;203;64009;-66
2022/01/17 00:45:31;;;;;;;0.60;0.60;;;;;;;1.62;80.65;98300.66;29373;216;63004;-63
2022/01/17 00:46:03;;;;;;;0.60;0.60;;;;;;;1.74;80.07;98300.87;29394;217;64008;-62
2022/01/17 00:46:34;;;;;;;0.60;0.60;;;;;;;1.76;80.19;98305.00;29373;212;63005;-61
2022/01/17 00:47:06;;;;;;;0.50;0.50;;;;;;;1.73;79.99;98300.09;29373;205;63009;-61
2022/01/17 00:47:41;;;;;;;0.60;0.60;;;;;;;1.70;80.21;98303.16;29373;306;63005;-60
2022/01/17 00:48:12;;;;;;;0.60;0.60;;;;;;;1.68;80.24;98297.19;29373;254;63009;-59
2022/01/17 00:48:44;;;;;;;0.60;0.60;;;;;;;1.66;80.25;98289.34;29373;357;63005;-60
2022/01/17 00:49:16;;;;;;;0.60;0.60;;;;;;;1.66;80.42;98291.22;29373;197;63009;-60
2022/01/17 00:49:47;;;;;;;0.60;0.60;;;;;;;1.66;80.61;98288.53;29373;252;63005;-62
2022/01/17 00:50:18;;;;;;;0.60;0.60;;;;;;;1.66;80.61;98288.53;29373;231;63009;-61
2022/01/17 00:50:50;;;;;;;0.60;0.60;;;;;;;1.68;80.36;98286.47;29373;246;63004;-61
2022/01/17 00:51:21;;;;;;;0.50;0.50;;;;;;;1.69;80.11;98293.47;29371;196;64009;-61
2022/01/17 00:51:53;;;;;;;0.60;0.60;;;;;;;1.67;80.54;98291.00;29373;202;63004;-60
2022/01/17 00:52:24;;;;;;;0.60;0.60;;;;;;;1.68;80.36;98297.19;29373;350;63011;-57
2022/01/17 00:52:56;;;;;;;0.60;0.60;;;;;;;1.65;80.47;98297.59;29373;220;63004;-60
2022/01/17 00:53:27;;;;;;;0.60;0.60;;;;;;;1.64;80.39;98295.94;29373;236;63008;-56
2022/01/17 00:53:59;;;;;;;0.60;0.60;;;;;;;1.65;80.40;98298.41;29373;198;63004;-61
2022/01/17 00:54:31;;;;;;;0.60;0.60;;;;;;;1.67;80.70;98307.06;29373;280;63009;-63
2022/01/17 00:55:03;;;;;;;0.60;0.60;;;;;;;1.69;80.66;98304.19;29373;281;63005;-61
2022/01/17 00:55:37;;;;;;;0.73;0.73;;;;;;;1.73;80.45;98289.38;29373;535;63009;-60
2022/01/17 00:56:09;;;;;;;0.60;0.60;;;;;;;1.74;80.26;98291.00;29373;316;63005;-60
2022/01/17 00:56:40;;;;;;;0.60;0.60;;;;;;;1.73;80.43;98284.03;29371;204;64009;-62
2022/01/17 00:57:11;;;;;;;0.60;0.60;;;;;;;1.72;80.28;98284.22;29371;360;64005;-61
2022/01/17 00:57:45;;;;;;;0.60;0.60;;;;;;;1.66;80.79;98285.84;29373;281;63025;-61
2022/01/17 00:58:17;;;;;;;0.60;0.60;;;;;;;1.63;80.83;98284.41;29371;241;64004;-61
2022/01/17 00:58:49;;;;;;;0.60;0.60;;;;;;;1.62;80.89;98284.59;29373;248;63012;-61
2022/01/17 00:59:20;;;;;;;0.60;0.60;;;;;;;1.61;80.86;98283.78;29373;205;63004;-62
2022/01/17 00:59:52;;;;;;;0.60;0.60;;;;;;;1.63;80.98;98283.59;29373;252;63009;-61
2022/01/17 01:00:24;;;;;;;0.60;0.60;;;;;;;1.68;80.87;98291.84;29373;322;63004;-56
2022/01/17 01:00:55;;;;;;;0.60;0.60;;;;;;;1.71;80.64;98296.78;29373;235;63025;-61
2022/01/17 01:01:26;;;;;;;0.60;0.60;;;;;;;1.69;80.64;98304.19;29373;352;63004;-61
2022/01/17 01:01:58;;;;;;;0.60;0.60;;;;;;;1.76;80.56;98294.28;29373;264;63009;-57
2022/01/17 01:02:29;;;;;;;0.60;0.60;;;;;;;1.74;80.25;98296.34;29371;237;64005;-61
2022/01/17 01:03:01;;;;;;;0.60;0.60;;;;;;;1.74;80.26;98299.03;29373;215;63009;-60
2022/01/17 01:03:32;;;;;;;0.60;0.60;;;;;;;1.73;80.28;98292.06;29373;319;63005;-61
2022/01/17 01:04:04;;;;;;;0.60;0.60;;;;;;;1.72;80.29;98297.59;29373;209;63009;-61
2022/01/17 01:04:35;;;;;;;0.60;0.60;;;;;;;1.71;80.44;98290.59;29373;241;63005;-56
2022/01/17 01:05:08;;;;;;;0.60;0.60;;;;;;;1.67;80.54;98279.47;29372;197;63009;-61
2022/01/17 01:05:39;;;;;;;0.60;0.60;;;;;;;1.66;80.69;98300.06;29373;196;63005;-61
2022/01/17 01:06:11;;;;;;;0.60;0.60;;;;;;;1.65;80.52;98286.87;29373;224;63009;-56
2022/01/17 01:06:42;;;;;;;0.60;0.60;;;;;;;1.63;80.57;98295.09;29373;221;63004;-59
2022/01/17 01:07:15;;;;;;;0.60;0.60;;;;;;;1.62;80.79;98293.47;29373;328;63009;-62
2022/01/17 01:07:46;;;;;;;0.60;0.60;;;;;;;1.61;81.13;98297.16;29371;367;64004;-62
2022/01/17 01:08:17;;;;;;;0.60;0.60;;;;;;;1.61;81.02;98301.69;29373;225;63009;-61
2022/01/17 01:08:48;;;;;;;0.60;0.60;;;;;;;1.64;81.17;98298.59;29373;308;63004;-62
2022/01/17 01:09:20;;;;;;;0.60;0.60;;;;;;;1.64;80.84;98312.00;29373;251;63009;-61
2022/01/17 01:10:06;;;;;;;0.60;0.60;;;;;;;1.63;81.16;98304.97;29373;248;63005;-61
2022/01/17 01:10:38;;;;;;;0.60;0.60;;;;;;;1.60;81.32;98310.72;29373;200;63005;-61
2022/01/17 01:11:09;;;;;;;0.60;0.60;;;;;;;1.56;81.36;98304.97;29373;228;63012;-57
2022/01/17 01:11:41;;;;;;;0.60;0.60;;;;;;;1.57;81.60;98305.78;29373;265;63009;-61
2022/01/17 01:12:12;;;;;;;0.60;0.60;;;;;;;1.54;81.46;98307.00;29373;342;63005;-59
2022/01/17 01:12:46;;;;;;;0.60;0.60;;;;;;;1.55;81.24;98307.84;29373;226;63009;-61
2022/01/17 01:13:22;;;;;;;0.60;0.60;;;;;;;1.53;81.59;98310.72;29371;275;64005;-62
2022/01/17 01:13:53;;;;;;;0.60;0.60;;;;;;;1.53;81.71;98309.87;29373;246;63009;-61
2022/01/17 01:14:24;;;;;;;0.82;0.82;;;;;;;1.52;81.51;98303.72;29373;369;63004;-61
2022/01/17 01:14:56;;;;;;;0.50;0.50;;;;;;;1.52;81.55;98306.38;29373;202;63019;-62
2022/01/17 01:15:45;;;;;;;0.60;0.60;;;;;;;1.54;81.55;98308.84;29373;373;63004;-62
2022/01/17 01:16:31;;;;;;;0.60;0.60;;;;;;;1.57;81.36;98316.47;29373;267;63024;-62
2022/01/17 01:17:08;;;;;;;0.60;0.60;;;;;;;1.55;81.27;98307.84;29373;290;63005;-61
2022/01/17 01:17:54;;;;;;;0.60;0.60;;;;;;;1.55;81.56;98315.84;29373;202;63009;-63
2022/01/17 01:18:49;;;;;;;;;;;;;;;;;;;;;
2022/01/17 01:19:28;;;;;;;0.60;0.60;;;;;;;1.57;81.32;98316.47;29372;333;63009;-61
2022/01/17 01:27:44;;;;;;;0.60;0.60;;;;;;;1.44;82.19;98317.25;29373;245;63009;-61
2022/01/17 01:28:15;;;;;;;0.60;0.60;;;;;;;1.44;81.94;98316.44;29373;285;63004;-61
2022/01/17 01:28:47;;;;;;;0.60;0.60;;;;;;;1.43;82.12;98309.44;29371;281;64009;-62
2022/01/17 01:29:19;;;;;;;0.60;0.60;;;;;;;1.42;82.58;98318.47;29371;199;64004;-61
2022/01/17 01:29:56;;;;;;;0.60;0.60;;;;;;;1.39;83.03;98314.34;29373;285;63009;-61
2022/01/17 01:30:29;;;;;;;0.60;0.60;;;;;;;1.38;82.63;98317.25;29373;299;63008;-60
2022/01/17 01:31:04;;;;;;;0.60;0.60;;;;;;;1.37;82.61;98318.28;29373;202;63008;-62
2022/01/17 01:31:47;;;;;;;0.60;0.60;;;;;;;1.36;82.69;98321.97;29373;208;63015;-57
2022/01/17 01:32:22;;;;;;;0.60;0.60;;;;;;;1.34;82.96;98323.00;29373;197;63009;-62
2022/01/17 01:32:57;;;;;;;0.60;0.60;;;;;;;1.34;82.96;98323.00;29373;347;63005;-61
2022/01/17 01:33:33;;;;;;;0.60;0.60;;;;;;;1.34;83.01;98322.16;29373;197;63009;-60
2022/01/17 01:34:06;;;;;;;0.60;0.60;;;;;;;1.33;82.85;98321.34;29373;290;63005;-60
2022/01/17 01:34:42;;;;;;;0.70;0.70;;;;;;;1.34;82.90;98324.84;29371;227;64009;-64
2022/01/17 01:35:17;;;;;;;0.60;0.60;;;;;;;1.34;82.92;98323.00;29373;200;63004;-60
2022/01/17 01:35:56;;;;;;;0.60;0.60;;;;;;;1.33;83.12;98326.69;29373;258;63009;-61
2022/01/17 01:36:29;;;;;;;0.60;0.60;;;;;;;1.33;82.85;98326.69;29373;252;63015;-61
2022/01/17 01:37:02;;;;;;;0.60;0.60;;;;;;;1.30;83.43;98320.91;29373;229;63009;-61
2022/01/17 01:37:34;;;;;;;2.60;1.30;;;;;;;1.27;83.44;98332.84;29373;241;63009;-60
2022/01/17 01:38:05;;;;;;;0.60;0.60;;;;;;;1.25;83.49;98326.03;29371;275;63998;-60
2022/01/17 01:38:39;;;;;;;0.50;0.50;;;;;;;1.24;83.71;98325.19;29371;248;64005;-62
2022/01/17 01:39:10;;;;;;;0.70;0.70;;;;;;;1.24;83.89;98332.41;29372;203;63009;-62
2022/01/17 01:39:41;;;;;;;0.60;0.60;;;;;;;1.22;83.88;98335.28;29373;202;63005;-57
2022/01/17 01:40:16;;;;;;;0.60;0.60;;;;;;;1.22;83.87;98329.91;29373;260;63009;-60
2022/01/17 01:40:50;;;;;;;0.50;0.50;;;;;;;1.23;83.44;98326.22;29373;214;63000;-61
2022/01/17 01:41:22;;;;;;;0.60;0.60;;;;;;;1.23;83.68;98325.41;29373;363;63009;-62
2022/01/17 01:41:53;;;;;;;0.60;0.60;;;;;;;1.23;83.55;98322.72;29373;264;63005;-61
2022/01/17 01:42:28;;;;;;;1.67;1.67;;;;;;;1.23;83.53;98328.06;29371;264;64009;-62
2022/01/17 01:42:59;;;;;;;0.60;0.60;;;;;;;1.25;83.70;98328.69;29373;343;63004;-60
2022/01/17 01:43:30;;;;;;;0.60;0.60;;;;;;;1.24;83.83;98327.88;29373;364;63009;-60
2022/01/17 01:44:03;;;;;;;0.60;0.60;;;;;;;1.24;83.79;98327.88;29373;313;63004;-61
2022/01/17 01:44:34;;;;;;;0.60;0.60;;;;;;;1.24;83.94;98329.72;29373;250;63009;-62
2022/01/17 01:45:13;;;;;;;0.60;0.60;;;;;;;1.23;84.04;98320.06;29371;213;64004;-57
2022/01/17 01:45:49;;;;;;;0.60;0.60;;;;;;;1.24;84.05;98327.06;29373;202;63008;-62
2022/01/17 01:46:20;;;;;;;0.60;0.60;;;;;;;1.23;83.81;98325.41;29373;331;63005;-61
2022/01/17 01:46:54;;;;;;;0.60;0.60;;;;;;;1.23;84.08;98326.22;29373;298;63009;-62
2022/01/17 01:47:27;;;;;;;0.60;0.60;;;;;;;1.24;83.70;98321.69;29373;298;63005;-61
2022/01/17 01:47:59;;;;;;;0.60;0.60;;;;;;;1.23;83.90;98318.19;29373;254;63009;-61
2022/01/17 01:48:33;;;;;;;0.60;0.60;;;;;;;1.24;84.01;98321.69;29371;315;64005;-62
2022/01/17 01:49:04;;;;;;;0.60;0.60;;;;;;;1.24;83.84;98321.69;29373;204;63009;-61
2022/01/17 01:49:36;;;;;;;0.60;0.60;;;;;;;1.24;83.81;98322.53;29373;350;63005;-62
2022/01/17 01:50:10;;;;;;;0.60;0.60;;;;;;;1.24;84.05;98317.19;29373;249;63009;-62
2022/01/17 01:50:42;;;;;;;0.60;0.60;;;;;;;1.24;83.64;98322.53;29371;210;64004;-62
2022/01/17 01:51:14;;;;;;;0.60;0.60;;;;;;;1.27;84.01;98323.97;29373;354;63009;-61
2022/01/17 01:51:47;;;;;;;0.60;0.60;;;;;;;1.28;83.72;98323.78;29373;279;63009;-60
2022/01/17 01:52:18;;;;;;;0.60;0.60;;;;;;;1.28;83.94;98323.78;29373;354;63009;-61
2022/01/17 01:52:50;;;;;;;0.60;0.60;;;;;;;1.27;83.64;98327.47;29373;293;63004;-61
2022/01/17 01:53:23;;;;;;;0.60;0.60;;;;;;;1.27;83.63;98335.50;29371;199;64008;-61
2022/01/17 01:53:54;;;;;;;0.60;0.60;;;;;;;1.27;83.74;98326.66;29373;199;63012;-61
2022/01/17 01:54:25;;;;;;;0.60;0.60;;;;;;;1.27;83.55;98332.00;29373;332;63019;-61
2022/01/17 01:54:56;;;;;;;0.60;0.60;;;;;;;1.27;83.60;98329.34;29373;200;63005;-57
2022/01/17 01:55:28;;;;;;;0.60;0.60;;;;;;;1.28;83.63;98329.13;29371;210;64009;-61
2022/01/17 01:55:59;;;;;;;0.60;0.60;;;;;;;1.29;83.60;98322.75;29373;199;63005;-60
2022/01/17 01:56:32;;;;;;;0.60;0.60;;;;;;;1.30;83.78;98327.09;29373;251;63009;-61
2022/01/17 01:57:04;;;;;;;0.60;0.60;;;;;;;1.36;83.40;98321.97;29373;306;63005;-62
2022/01/17 01:57:35;;;;;;;0.60;0.60;;;;;;;1.39;83.31;98317.03;29373;225;63009;-61
2022/01/17 01:58:07;;;;;;;0.60;0.60;;;;;;;1.43;82.96;98317.44;29373;313;63004;-60
2022/01/17 01:58:40;;;;;;;0.60;0.60;;;;;;;1.42;83.22;98318.47;29373;202;63009;-61
2022/01/17 01:59:13;;;;;;;0.60;0.60;;;;;;;1.39;83.01;98308.19;29373;349;63008;-61
2022/01/17 01:59:45;;;;;;;0.60;0.60;;;;;;;1.35;83.27;98302.44;29373;231;63004;-61
2022/01/17 02:00:17;;;;;;;0.60;0.60;;;;;;;1.33;83.21;98309.81;29373;319;63004;-60
2022/01/17 02:00:49;;;;;;;0.70;0.70;;;;;;;1.30;83.25;98307.53;29371;374;64008;-61
2022/01/17 02:01:20;;;;;;;0.60;0.60;;;;;;;1.29;83.33;98308.56;29371;238;64005;-61
2022/01/17 02:01:52;;;;;;;0.60;0.60;;;;;;;1.27;83.68;98303.41;29373;250;63009;-57
2022/01/17 02:02:23;;;;;;;0.60;0.60;;;;;;;1.25;83.48;98302.78;29373;237;63005;-60
2022/01/17 02:02:55;;;;;;;0.60;0.60;;;;;;;1.25;83.94;98308.13;29373;308;63009;-61
2022/01/17 02:03:26;;;;;;;0.60;0.60;;;;;;;1.22;83.61;98303.19;29373;210;63005;-61
2022/01/17 02:03:58;;;;;;;0.60;0.60;;;;;;;1.22;83.88;98303.19;29373;226;63009;-60
2022/01/17 02:04:29;;;;;;;0.60;0.60;;;;;;;1.20;83.98;98299.88;29373;280;63005;-61
2022/01/17 02:05:01;;;;;;;2.47;2.37;;;;;;;1.18;84.22;98293.91;29373;312;63009;-60
2022/01/17 02:05:33;;;;;;;0.85;0.85;;;;;;;1.17;83.85;98294.09;29372;198;63004;-61
2022/01/17 02:06:05;;;;;;;0.60;0.60;;;;;;;1.16;84.02;98293.28;29373;334;63009;-61
2022/01/17 02:06:36;;;;;;;0.60;0.60;;;;;;;1.16;84.35;98293.28;29371;276;64004;-61
2022/01/17 02:07:07;;;;;;;0.60;0.60;;;;;;;1.15;84.41;98291.63;29373;287;63009;-58
2022/01/17 02:07:39;;;;;;;0.60;0.60;;;;;;;1.15;84.25;98302.31;29373;209;63000;-62
2022/01/17 02:08:15;;;;;;;0.60;0.60;;;;;;;1.13;84.35;98288.31;29373;320;63008;-61
2022/01/17 02:08:46;;;;;;;0.60;0.60;;;;;;;1.13;84.43;98304.38;29373;252;63005;-61
2022/01/17 02:09:17;;;;;;;0.60;0.60;;;;;;;1.12;84.67;98302.72;29373;284;63009;-60
2022/01/17 02:09:49;;;;;;;0.60;0.60;;;;;;;1.12;84.66;98299.22;29373;206;63005;-61
2022/01/17 02:10:20;;;;;;;0.60;0.60;;;;;;;1.11;84.56;98301.06;29373;197;63009;-57
2022/01/17 02:10:51;;;;;;;0.70;0.70;;;;;;;1.11;84.57;98303.75;29373;232;63005;-60
2022/01/17 02:11:22;;;;;;;0.70;0.70;;;;;;;1.11;84.55;98293.03;29395;230;63009;-61
2022/01/17 02:11:56;;;;;;;0.60;0.60;;;;;;;1.11;84.41;98295.72;29371;213;64005;-60
2022/01/17 02:12:29;;;;;;;0.60;0.60;;;;;;;1.12;84.47;98300.03;29395;281;63009;-61
2022/01/17 02:13:00;;;;;;;0.60;0.60;;;;;;;1.12;84.56;98296.53;29373;252;63004;-60
2022/01/17 02:13:32;;;;;;;0.60;0.60;;;;;;;1.13;84.67;98293.66;29373;308;63009;-61
2022/01/17 02:14:05;;;;;;;0.60;0.60;;;;;;;1.12;84.39;98297.38;29373;254;63004;-61
2022/01/17 02:14:36;;;;;;;0.75;0.75;;;;;;;1.14;84.74;98294.50;29373;291;63009;-61
2022/01/17 02:15:15;;;;;;;0.60;0.60;;;;;;;1.14;84.72;98295.31;29373;196;63004;-61
2022/01/17 02:15:47;;;;;;;0.60;0.60;;;;;;;1.15;84.68;98294.31;29373;240;63008;-61
2022/01/17 02:16:24;;;;;;;0.60;0.60;;;;;;;1.16;84.79;98287.09;29373;242;63005;-61
2022/01/17 02:17:01;;;;;;;0.60;0.60;;;;;;;1.18;84.61;98293.09;29373;261;63009;-60
2022/01/17 02:17:34;;;;;;;0.90;0.90;;;;;;;1.19;84.52;98292.88;29371;284;64005;-61
2022/01/17 02:18:07;;;;;;;0.60;0.60;;;;;;;1.22;84.07;98291.66;29373;293;63009;-62
2022/01/17 02:18:42;;;;;;;0.60;0.60;;;;;;;1.30;83.78;98295.00;29373;291;63005;-61
2022/01/17 02:19:19;;;;;;;0.60;0.60;;;;;;;1.31;83.72;98290.47;29373;209;63009;-61
2022/01/17 02:20:03;;;;;;;0.60;0.60;;;;;;;1.32;83.36;98292.94;29373;328;63005;-62
2022/01/17 02:20:46;;;;;;;0.60;0.60;;;;;;;1.30;83.43;98295.00;29373;353;63009;-60
2022/01/17 02:21:31;;;;;;;0.60;0.60;;;;;;;1.28;83.33;98291.69;29373;205;63004;-60
2022/01/17 02:22:04;;;;;;;0.60;0.60;;;;;;;1.26;83.66;98284.91;29373;202;63020;-57
2022/01/17 02:22:40;;;;;;;0.60;0.60;;;;;;;1.25;83.84;98292.09;29371;239;64004;-57
2022/01/17 02:23:13;;;;;;;0.60;0.60;;;;;;;1.25;83.77;98286.75;29373;215;63008;-60
2022/01/17 02:23:51;;;;;;;0.60;0.60;;;;;;;1.23;83.71;98288.78;29372;264;64004;-62
2022/01/17 02:24:23;;;;;;;0.60;0.60;;;;;;;1.26;83.59;98290.25;29373;197;63009;-62
2022/01/17 02:24:58;;;;;;;0.60;0.60;;;;;;;1.26;83.56;98291.06;29372;237;64005;-61
2022/01/17 02:25:30;;;;;;;0.60;0.60;;;;;;;1.25;84.01;98284.06;29373;353;63009;-62
2022/01/17 02:26:02;;;;;;;0.60;0.60;;;;;;;1.24;83.67;98289.62;29373;291;63005;-61
2022/01/17 02:26:33;;;;;;;0.60;0.60;;;;;;;1.26;83.94;98298.25;29373;239;63009;-56
2022/01/17 02:27:05;;;;;;;0.60;0.60;;;;;;;1.32;83.72;98295.63;29373;241;63005;-61
2022/01/17 02:27:38;;;;;;;0.60;0.60;;;;;;;1.36;83.18;98295.22;29371;306;64009;-61
2022/01/17 02:28:09;;;;;;;0.60;0.60;;;;;;;1.42;82.91;98291.72;29373;282;63004;-60
2022/01/17 02:28:49;;;;;;;0.60;0.60;;;;;;;1.44;82.89;98295.03;29373;204;63009;-60
2022/01/17 02:29:20;;;;;;;0.60;0.60;;;;;;;1.46;82.64;98284.97;29373;243;63004;-60
2022/01/17 02:29:53;;;;;;;0.60;0.60;;;;;;;1.44;82.57;98289.69;29373;203;63009;-60
2022/01/17 02:30:26;;;;;;;0.60;0.60;;;;;;;1.41;82.73;98290.91;29373;294;63004;-60
2022/01/17 02:30:57;;;;;;;0.60;0.60;;;;;;;1.39;82.89;98282.25;29373;226;63019;-59
2022/01/17 02:31:28;;;;;;;0.60;0.60;;;;;;;1.37;83.07;98288.84;29373;318;63005;-61
2022/01/17 02:32:00;;;;;;;0.60;0.60;;;;;;;1.36;83.15;98284.53;29371;256;64009;-58
2022/01/17 02:32:31;;;;;;;0.60;0.60;;;;;;;1.35;82.96;98289.06;29373;252;63005;-61
2022/01/17 02:33:03;;;;;;;0.60;0.60;;;;;;;1.37;82.89;98272.81;29373;297;63009;-57
2022/01/17 02:33:35;;;;;;;0.60;0.60;;;;;;;1.38;82.92;98274.47;29373;199;63005;-61
2022/01/17 02:34:06;;;;;;;0.60;0.60;;;;;;;1.37;82.85;98280.84;29373;264;63009;-58
2022/01/17 02:34:43;;;;;;;0.60;0.60;;;;;;;1.39;83.16;98276.91;29373;276;63005;-61
2022/01/17 02:35:20;;;;;;;0.60;0.60;;;;;;;1.38;82.90;98282.47;29373;292;63009;-61
2022/01/17 02:35:51;;;;;;;0.60;0.60;;;;;;;1.37;83.22;98280.84;29373;355;63004;-61
2022/01/17 02:36:23;;;;;;;0.60;0.60;;;;;;;1.37;82.97;98278.16;29373;220;63009;-62
2022/01/17 02:36:54;;;;;;;0.80;0.80;;;;;;;1.40;83.14;98283.06;29373;400;63004;-61
2022/01/17 02:37:25;;;;;;;0.60;0.60;;;;;;;1.38;83.16;98285.16;29371;202;64008;-61
2022/01/17 02:37:57;;;;;;;0.60;0.60;;;;;;;1.39;83.54;98284.94;29373;216;63004;-60
2022/01/17 02:38:29;;;;;;;0.57;0.57;;;;;;;1.40;83.40;98283.91;29373;327;63008;-62
2022/01/17 02:39:03;;;;;;;0.77;0.77;;;;;;;1.54;83.07;98284.78;29373;234;63017;-63
2022/01/17 02:39:34;;;;;;;0.60;0.60;;;;;;;1.58;83.01;98286.03;29373;245;63009;-62
2022/01/17 02:40:07;;;;;;;0.60;0.60;;;;;;;1.56;82.51;98280.06;29373;321;63005;-62
2022/01/17 02:40:40;;;;;;;0.60;0.60;;;;;;;1.54;82.56;98279.44;29373;254;63009;-61
2022/01/17 02:41:12;;;;;;;0.60;0.60;;;;;;;1.51;82.70;98279.84;29373;263;63000;-62
2022/01/17 02:41:46;;;;;;;0.60;0.60;;;;;;;1.48;82.89;98285.59;29373;214;63009;-61
2022/01/17 02:42:19;;;;;;;0.60;0.60;;;;;;;1.45;83.14;98280.63;29373;288;63000;-62
2022/01/17 02:42:59;;;;;;;1.58;1.52;;;;;;;1.43;83.22;98286.19;29371;202;64009;-62
2022/01/17 02:43:32;;;;;;;0.60;0.60;;;;;;;1.40;83.40;98288.44;29373;255;63004;-62
2022/01/17 02:44:04;;;;;;;0.60;0.60;;;;;;;1.37;83.51;98283.50;29373;307;63009;-61
2022/01/17 02:44:44;;;;;;;0.60;0.60;;;;;;;1.36;83.78;98277.34;29373;204;63004;-62
2022/01/17 02:45:36;;;;;;;0.60;0.60;;;;;;;1.35;83.82;98289.06;29373;202;63008;-63
2022/01/17 02:47:00;;;;;;;0.60;0.60;;;;;;;1.37;84.29;98295.03;29395;209;63009;-57
2022/01/17 02:47:31;;;;;;;0.60;0.60;;;;;;;1.41;84.09;98293.56;29395;204;63005;-62
2022/01/17 02:48:06;;;;;;;0.60;0.60;;;;;;;1.41;84.05;98290.06;29371;211;64009;-62
2022/01/17 02:48:39;;;;;;;0.60;0.60;;;;;;;1.46;84.14;98295.66;29373;320;63005;-63
2022/01/17 02:49:11;;;;;;;0.60;0.60;;;;;;;1.44;83.98;98289.69;29373;231;63009;-62
2022/01/17 02:49:43;;;;;;;0.60;0.60;;;;;;;1.42;83.92;98297.06;29373;277;63005;-63
2022/01/17 02:50:14;;;;;;;0.60;0.60;;;;;;;1.41;84.13;98295.44;29373;210;63009;-60